FGOKA EBCI-LFQT
Flight info
| Callsign | FGOKA |
|---|---|
| Flight time | 0h 38m |
| Altitude | 10000 |
| Route | CIV DCT LEQ |
| Aircraft | DA42/L-SDFGRY/S |
Departure
| Time | 2026-05-05 08:33 |
|---|---|
| Airport | Brussels South Charleroi Airport (EBCI) |
Arrival
| Time | 2026-05-05 09:12 |
|---|---|
| Airport | Merville-Calonne Airport (LFQT) |
| Time | Latitude | Longitude | Altitude | Speed | Heading |
|---|---|---|---|---|---|
| 2026-05-05 08:01 | 50.45987 | 4.46020 | 585 ft | 0 kts | 65° |
| 2026-05-05 08:24 | 50.45987 | 4.46021 | 585 ft | 0 kts | 57° |
| 2026-05-05 08:24 | 50.45989 | 4.46026 | 585 ft | 3 kts | 64° |
| 2026-05-05 08:25 | 50.46015 | 4.46026 | 585 ft | 5 kts | 334° |
| 2026-05-05 08:25 | 50.46054 | 4.46006 | 584 ft | 6 kts | 36° |
| 2026-05-05 08:25 | 50.46071 | 4.46091 | 583 ft | 11 kts | 70° |
| 2026-05-05 08:25 | 50.46088 | 4.46159 | 583 ft | 5 kts | 65° |
| 2026-05-05 08:26 | 50.46106 | 4.46212 | 582 ft | 6 kts | 62° |
| 2026-05-05 08:26 | 50.46141 | 4.46253 | 581 ft | 0 kts | 17° |
| 2026-05-05 08:26 | 50.46142 | 4.46254 | 581 ft | 2 kts | 7° |
| 2026-05-05 08:26 | 50.46159 | 4.46247 | 581 ft | 0 kts | 334° |
| 2026-05-05 08:31 | 50.46179 | 4.46230 | 581 ft | 8 kts | 334° |
| 2026-05-05 08:32 | 50.46236 | 4.46191 | 580 ft | 8 kts | 340° |
| 2026-05-05 08:32 | 50.46242 | 4.46161 | 580 ft | 0 kts | 245° |
| 2026-05-05 08:32 | 50.46200 | 4.46012 | 583 ft | 47 kts | 243° |
| 2026-05-05 08:32 | 50.45989 | 4.45279 | 598 ft | 94 kts | 245° |
| 2026-05-05 08:33 | 50.45676 | 4.44351 | 820 ft | 102 kts | 246° |
| 2026-05-05 08:33 | 50.45358 | 4.43339 | 1120 ft | 105 kts | 249° |
| 2026-05-05 08:33 | 50.44978 | 4.42317 | 1369 ft | 111 kts | 244° |
| 2026-05-05 08:33 | 50.44636 | 4.41267 | 1703 ft | 107 kts | 252° |
| 2026-05-05 08:34 | 50.44374 | 4.40159 | 1872 ft | 114 kts | 255° |
| 2026-05-05 08:34 | 50.44103 | 4.38978 | 2155 ft | 112 kts | 253° |
| 2026-05-05 08:34 | 50.43815 | 4.37844 | 2407 ft | 115 kts | 251° |
| 2026-05-05 08:34 | 50.43496 | 4.36669 | 2660 ft | 118 kts | 249° |
| 2026-05-05 08:35 | 50.43167 | 4.35495 | 2970 ft | 118 kts | 249° |
| 2026-05-05 08:35 | 50.42494 | 4.33128 | 3490 ft | 120 kts | 248° |
| 2026-05-05 08:35 | 50.42150 | 4.31930 | 3767 ft | 120 kts | 248° |
| 2026-05-05 08:36 | 50.41806 | 4.30722 | 3991 ft | 127 kts | 248° |
| 2026-05-05 08:36 | 50.41416 | 4.29350 | 3999 ft | 147 kts | 248° |
| 2026-05-05 08:36 | 50.40984 | 4.27824 | 3996 ft | 158 kts | 248° |
| 2026-05-05 08:36 | 50.40698 | 4.26147 | 4002 ft | 162 kts | 272° |
| 2026-05-05 08:37 | 50.40949 | 4.24452 | 4005 ft | 159 kts | 302° |
| 2026-05-05 08:37 | 50.41515 | 4.23001 | 4000 ft | 154 kts | 307° |
| 2026-05-05 08:37 | 50.42082 | 4.21597 | 3999 ft | 151 kts | 307° |
| 2026-05-05 08:37 | 50.42643 | 4.20204 | 3999 ft | 151 kts | 308° |
| 2026-05-05 08:38 | 50.43205 | 4.18807 | 3998 ft | 151 kts | 308° |
| 2026-05-05 08:38 | 50.43762 | 4.17419 | 3997 ft | 150 kts | 308° |
| 2026-05-05 08:38 | 50.44310 | 4.16054 | 3997 ft | 149 kts | 308° |
| 2026-05-05 08:38 | 50.44863 | 4.14678 | 3996 ft | 149 kts | 308° |
| 2026-05-05 08:39 | 50.45412 | 4.13310 | 3995 ft | 148 kts | 308° |
| 2026-05-05 08:39 | 50.45956 | 4.11949 | 3994 ft | 147 kts | 308° |
| 2026-05-05 08:39 | 50.46498 | 4.10599 | 3997 ft | 146 kts | 308° |
| 2026-05-05 08:39 | 50.47038 | 4.09249 | 3996 ft | 145 kts | 308° |
| 2026-05-05 08:40 | 50.47577 | 4.07906 | 3999 ft | 146 kts | 307° |
| 2026-05-05 08:40 | 50.48117 | 4.06554 | 3993 ft | 146 kts | 308° |
| 2026-05-05 08:40 | 50.48657 | 4.05203 | 3994 ft | 145 kts | 308° |
| 2026-05-05 08:40 | 50.49195 | 4.03858 | 3989 ft | 145 kts | 308° |
| 2026-05-05 08:41 | 50.49735 | 4.02511 | 3998 ft | 146 kts | 308° |
| 2026-05-05 08:41 | 50.50272 | 4.01166 | 3993 ft | 148 kts | 308° |
| 2026-05-05 08:41 | 50.50818 | 3.99800 | 3992 ft | 147 kts | 308° |
| 2026-05-05 08:41 | 50.51358 | 3.98443 | 3988 ft | 146 kts | 308° |
| 2026-05-05 08:42 | 50.51897 | 3.97093 | 3989 ft | 146 kts | 308° |
| 2026-05-05 08:42 | 50.52968 | 3.94406 | 3988 ft | 145 kts | 308° |
| 2026-05-05 08:42 | 50.53504 | 3.93059 | 3991 ft | 145 kts | 308° |
| 2026-05-05 08:43 | 50.54039 | 3.91716 | 3990 ft | 145 kts | 308° |
| 2026-05-05 08:43 | 50.54572 | 3.90376 | 3989 ft | 145 kts | 307° |
| 2026-05-05 08:43 | 50.55106 | 3.89029 | 3992 ft | 145 kts | 308° |
| 2026-05-05 08:43 | 50.55641 | 3.87683 | 3988 ft | 145 kts | 308° |
| 2026-05-05 08:44 | 50.56176 | 3.86337 | 3987 ft | 145 kts | 309° |
| 2026-05-05 08:44 | 50.56712 | 3.84989 | 3984 ft | 146 kts | 309° |
| 2026-05-05 08:44 | 50.57219 | 3.83599 | 3983 ft | 149 kts | 297° |
| 2026-05-05 08:44 | 50.57377 | 3.81956 | 3980 ft | 155 kts | 273° |
| 2026-05-05 08:45 | 50.57363 | 3.80290 | 3986 ft | 153 kts | 273° |
| 2026-05-05 08:45 | 50.57351 | 3.78616 | 3986 ft | 153 kts | 274° |
| 2026-05-05 08:45 | 50.57320 | 3.76936 | 3984 ft | 153 kts | 272° |
| 2026-05-05 08:45 | 50.57286 | 3.75260 | 3985 ft | 153 kts | 272° |
| 2026-05-05 08:46 | 50.57259 | 3.73586 | 3987 ft | 153 kts | 272° |
| 2026-05-05 08:46 | 50.57235 | 3.71916 | 3983 ft | 153 kts | 272° |
| 2026-05-05 08:46 | 50.57211 | 3.70243 | 3985 ft | 153 kts | 272° |
| 2026-05-05 08:46 | 50.57187 | 3.68578 | 3988 ft | 153 kts | 273° |
| 2026-05-05 08:47 | 50.57163 | 3.66904 | 3986 ft | 153 kts | 272° |
| 2026-05-05 08:47 | 50.57139 | 3.65227 | 3988 ft | 154 kts | 272° |
| 2026-05-05 08:47 | 50.57114 | 3.63542 | 3987 ft | 155 kts | 272° |
| 2026-05-05 08:47 | 50.57089 | 3.61848 | 3987 ft | 155 kts | 273° |
| 2026-05-05 08:48 | 50.57063 | 3.60155 | 3987 ft | 154 kts | 272° |
| 2026-05-05 08:48 | 50.57039 | 3.58466 | 3985 ft | 154 kts | 272° |
| 2026-05-05 08:48 | 50.57012 | 3.56773 | 3985 ft | 155 kts | 272° |
| 2026-05-05 08:48 | 50.56986 | 3.55109 | 3986 ft | 154 kts | 272° |
| 2026-05-05 08:49 | 50.56962 | 3.53402 | 3982 ft | 154 kts | 272° |
| 2026-05-05 08:49 | 50.56934 | 3.51716 | 3982 ft | 154 kts | 272° |
| 2026-05-05 08:49 | 50.56906 | 3.50056 | 3982 ft | 153 kts | 272° |
| 2026-05-05 08:49 | 50.56880 | 3.48377 | 3982 ft | 154 kts | 272° |
| 2026-05-05 08:50 | 50.56853 | 3.46694 | 3984 ft | 153 kts | 271° |
| 2026-05-05 08:50 | 50.56825 | 3.45021 | 3986 ft | 153 kts | 272° |
| 2026-05-05 08:50 | 50.56798 | 3.43340 | 3991 ft | 154 kts | 272° |
| 2026-05-05 08:50 | 50.56771 | 3.41643 | 3987 ft | 156 kts | 272° |
| 2026-05-05 08:51 | 50.56741 | 3.39938 | 3984 ft | 156 kts | 271° |
| 2026-05-05 08:51 | 50.56712 | 3.38233 | 3983 ft | 155 kts | 272° |
| 2026-05-05 08:51 | 50.56683 | 3.36537 | 3985 ft | 155 kts | 272° |
| 2026-05-05 08:51 | 50.56655 | 3.34840 | 3984 ft | 155 kts | 272° |
| 2026-05-05 08:52 | 50.56624 | 3.33146 | 3986 ft | 155 kts | 272° |
| 2026-05-05 08:52 | 50.56595 | 3.31466 | 3990 ft | 156 kts | 272° |
| 2026-05-05 08:52 | 50.56566 | 3.29758 | 3986 ft | 156 kts | 272° |
| 2026-05-05 08:52 | 50.56536 | 3.28055 | 3987 ft | 155 kts | 272° |
| 2026-05-05 08:53 | 50.56504 | 3.26362 | 3987 ft | 155 kts | 272° |
| 2026-05-05 08:53 | 50.56474 | 3.24667 | 3986 ft | 155 kts | 272° |
| 2026-05-05 08:53 | 50.56443 | 3.22977 | 3986 ft | 154 kts | 272° |
| 2026-05-05 08:53 | 50.56407 | 3.21287 | 3987 ft | 154 kts | 272° |
| 2026-05-05 08:54 | 50.56372 | 3.19603 | 3992 ft | 154 kts | 272° |
| 2026-05-05 08:54 | 50.56340 | 3.17914 | 3986 ft | 154 kts | 272° |
| 2026-05-05 08:54 | 50.56309 | 3.16223 | 3984 ft | 154 kts | 272° |
| 2026-05-05 08:54 | 50.56281 | 3.14533 | 3987 ft | 155 kts | 272° |
| 2026-05-05 08:55 | 50.56251 | 3.12834 | 3988 ft | 155 kts | 272° |
| 2026-05-05 08:55 | 50.56221 | 3.11164 | 3988 ft | 154 kts | 272° |
| 2026-05-05 08:55 | 50.56202 | 3.10024 | 3986 ft | 154 kts | 272° |
| 2026-05-05 08:56 | 50.56132 | 3.06114 | 3992 ft | 153 kts | 272° |
| 2026-05-05 08:56 | 50.56098 | 3.04437 | 3992 ft | 153 kts | 272° |
| 2026-05-05 08:56 | 50.56066 | 3.02757 | 3994 ft | 153 kts | 272° |
| 2026-05-05 08:56 | 50.56034 | 3.01083 | 3992 ft | 153 kts | 272° |
| 2026-05-05 08:57 | 50.56000 | 2.99412 | 3995 ft | 153 kts | 272° |
| 2026-05-05 08:57 | 50.55999 | 2.97739 | 3994 ft | 153 kts | 276° |
| 2026-05-05 08:57 | 50.56048 | 2.96075 | 3991 ft | 152 kts | 276° |
| 2026-05-05 08:57 | 50.56103 | 2.94421 | 3991 ft | 151 kts | 277° |
| 2026-05-05 08:58 | 50.56156 | 2.92768 | 3991 ft | 152 kts | 277° |
| 2026-05-05 08:58 | 50.56207 | 2.91135 | 3990 ft | 151 kts | 277° |
| 2026-05-05 08:58 | 50.56257 | 2.89476 | 3993 ft | 152 kts | 276° |
| 2026-05-05 08:58 | 50.56295 | 2.87812 | 3992 ft | 153 kts | 276° |
| 2026-05-05 08:59 | 50.56329 | 2.86148 | 3991 ft | 152 kts | 275° |
| 2026-05-05 08:59 | 50.56380 | 2.84487 | 3993 ft | 152 kts | 277° |
| 2026-05-05 08:59 | 50.56438 | 2.82806 | 3917 ft | 157 kts | 277° |
| 2026-05-05 08:59 | 50.56497 | 2.81063 | 3787 ft | 162 kts | 277° |
| 2026-05-05 09:00 | 50.56554 | 2.79274 | 3642 ft | 165 kts | 277° |
| 2026-05-05 09:00 | 50.56608 | 2.77462 | 3500 ft | 167 kts | 277° |
| 2026-05-05 09:00 | 50.56660 | 2.75641 | 3368 ft | 166 kts | 277° |
| 2026-05-05 09:00 | 50.56718 | 2.73851 | 3253 ft | 165 kts | 277° |
| 2026-05-05 09:01 | 50.56771 | 2.72052 | 3133 ft | 165 kts | 277° |
| 2026-05-05 09:01 | 50.56813 | 2.70238 | 3016 ft | 165 kts | 277° |
| 2026-05-05 09:01 | 50.56852 | 2.68436 | 2898 ft | 164 kts | 276° |
| 2026-05-05 09:01 | 50.56899 | 2.66639 | 2781 ft | 164 kts | 277° |
| 2026-05-05 09:02 | 50.56950 | 2.64801 | 2502 ft | 171 kts | 277° |
| 2026-05-05 09:02 | 50.56991 | 2.62953 | 2391 ft | 168 kts | 277° |
| 2026-05-05 09:02 | 50.57063 | 2.61128 | 2256 ft | 167 kts | 279° |
| 2026-05-05 09:02 | 50.57147 | 2.59308 | 2100 ft | 166 kts | 278° |
| 2026-05-05 09:03 | 50.57119 | 2.57507 | 1997 ft | 164 kts | 259° |
| 2026-05-05 09:03 | 50.56786 | 2.55834 | 1992 ft | 152 kts | 256° |
| 2026-05-05 09:03 | 50.56477 | 2.54369 | 1988 ft | 133 kts | 255° |
| 2026-05-05 09:03 | 50.55982 | 2.53236 | 2000 ft | 121 kts | 227° |
| 2026-05-05 09:04 | 50.55391 | 2.52325 | 1993 ft | 117 kts | 225° |
| 2026-05-05 09:04 | 50.54798 | 2.51469 | 1992 ft | 114 kts | 221° |
| 2026-05-05 09:04 | 50.54399 | 2.50902 | 2007 ft | 120 kts | 223° |
| 2026-05-05 09:05 | 50.52826 | 2.48837 | 2002 ft | 125 kts | 219° |
| 2026-05-05 09:05 | 50.52071 | 2.48228 | 1991 ft | 120 kts | 182° |
| 2026-05-05 09:05 | 50.51333 | 2.48515 | 1982 ft | 105 kts | 128° |
| 2026-05-05 09:05 | 50.50966 | 2.49408 | 1981 ft | 91 kts | 90° |
| 2026-05-05 09:06 | 50.51159 | 2.50224 | 1976 ft | 82 kts | 41° |
| 2026-05-05 09:06 | 50.51570 | 2.50840 | 1978 ft | 82 kts | 44° |
| 2026-05-05 09:06 | 50.51960 | 2.51467 | 1990 ft | 83 kts | 45° |
| 2026-05-05 09:06 | 50.52385 | 2.52146 | 1989 ft | 94 kts | 37° |
| 2026-05-05 09:07 | 50.52735 | 2.52537 | 2083 ft | 88 kts | 41° |
| 2026-05-05 09:07 | 50.53755 | 2.54070 | 1946 ft | 83 kts | 39° |
| 2026-05-05 09:07 | 50.54178 | 2.54659 | 2023 ft | 80 kts | 41° |
| 2026-05-05 09:08 | 50.54356 | 2.54917 | 2008 ft | 79 kts | 41° |
| 2026-05-05 09:08 | 50.54891 | 2.55687 | 1930 ft | 84 kts | 41° |
| 2026-05-05 09:08 | 50.55338 | 2.56318 | 1774 ft | 87 kts | 42° |
| 2026-05-05 09:09 | 50.55631 | 2.56740 | 1687 ft | 86 kts | 39° |
| 2026-05-05 09:09 | 50.56100 | 2.57347 | 1549 ft | 88 kts | 39° |
| 2026-05-05 09:09 | 50.56566 | 2.57971 | 1464 ft | 88 kts | 39° |
| 2026-05-05 09:09 | 50.57042 | 2.58590 | 1334 ft | 91 kts | 39° |
| 2026-05-05 09:10 | 50.57985 | 2.59821 | 1038 ft | 83 kts | 37° |
| 2026-05-05 09:10 | 50.58467 | 2.60384 | 868 ft | 89 kts | 39° |
| 2026-05-05 09:10 | 50.58962 | 2.60990 | 785 ft | 90 kts | 39° |
| 2026-05-05 09:11 | 50.59442 | 2.61622 | 645 ft | 90 kts | 39° |
| 2026-05-05 09:11 | 50.59924 | 2.62224 | 494 ft | 86 kts | 25° |
| 2026-05-05 09:11 | 50.60431 | 2.62576 | 328 ft | 76 kts | 29° |
| 2026-05-05 09:11 | 50.60839 | 2.63043 | 198 ft | 71 kts | 32° |
| 2026-05-05 09:12 | 50.61196 | 2.63453 | 118 ft | 60 kts | 34° |
| 2026-05-05 09:12 | 50.61512 | 2.63827 | 62 ft | 45 kts | 37° |
| 2026-05-05 09:12 | 50.61660 | 2.63998 | 63 ft | 10 kts | 1° |
| 2026-05-05 09:12 | 50.61703 | 2.63952 | 63 ft | 7 kts | 316° |
| 2026-05-05 09:13 | 50.61745 | 2.63897 | 57 ft | 0 kts | 318° |
| 2026-05-05 09:13 | 50.61751 | 2.63890 | 65 ft | 6 kts | 316° |
| 2026-05-05 09:13 | 50.61796 | 2.63831 | 61 ft | 10 kts | 328° |
| 2026-05-05 09:14 | 50.61853 | 2.63856 | 63 ft | 9 kts | 37° |
| 2026-05-05 09:14 | 50.61906 | 2.63920 | 61 ft | 10 kts | 37° |
| 2026-05-05 09:14 | 50.61962 | 2.63989 | 57 ft | 10 kts | 36° |
| 2026-05-05 09:14 | 50.62021 | 2.64060 | 57 ft | 11 kts | 37° |
| 2026-05-05 09:15 | 50.62084 | 2.64137 | 60 ft | 12 kts | 38° |
| 2026-05-05 09:15 | 50.62146 | 2.64213 | 58 ft | 11 kts | 38° |
| 2026-05-05 09:15 | 50.62205 | 2.64284 | 62 ft | 11 kts | 34° |
| 2026-05-05 09:15 | 50.62274 | 2.64367 | 62 ft | 16 kts | 37° |
| 2026-05-05 09:16 | 50.62359 | 2.64469 | 60 ft | 14 kts | 38° |
| 2026-05-05 09:16 | 50.62434 | 2.64559 | 62 ft | 13 kts | 37° |
| 2026-05-05 09:16 | 50.62480 | 2.64543 | 62 ft | 8 kts | 347° |
| 2026-05-05 09:16 | 50.62532 | 2.64530 | 62 ft | 7 kts | 9° |
| 2026-05-05 09:17 | 50.62535 | 2.64532 | 62 ft | 1 kts | 30° |
| 2026-05-05 09:17 | 50.62535 | 2.64544 | 62 ft | 0 kts | 130° |
| 2026-05-05 09:17 | 50.62534 | 2.64547 | 62 ft | 0 kts | 127° |